HKNW/WIL METAR and TAF weather

Enter ICAO airport designator
Station Type Date Time Source
HKNW METAR 2019/08/24 18:00 UTC NOAA

HKNW 241800Z 00000KT 9999 BKN019 17/15 Q1024


Station Type Date Time Source
HKNW Decoded METAR 2019/08/24 18:00 UTC NOAA

Station name not available
Aug 24, 2019 - 02:00 PM EDT / 2019.08.24 1800 UTC
Wind: Calm:0
Visibility: greater than 7 mile(s):0
Sky conditions: mostly cloudy
Temperature: 62 F (17 C)
Dew Point: 59 F (15 C)
Relative Humidity: 88%
Pressure (altimeter): 30.24 in. Hg (1024 hPa)
ob: HKNW 241800Z 00000KT 9999 BKN019 17/15 Q1024
cycle: 18

Station Type Date Time Source
HKNW TAF 2012/11/22 12:18 UTC NOAA

TAF TAF HKNW 221030Z 2212/2312 03010KT 9999 FEW025CB SCT026
TEMPO 2212/2218 VRB10KT -SHRA FEW024CB BKN025
BECMG 2220/2223 07005KT CAVOK
TEMPO 2300/2300 VRB05KT 9999 FEW006 BKN016
BECMG 2308/2311 08010KT SCT026

Example: see airport list